sensor_id;sensor_type;location;lat;lon;timestamp;temperature;humidity
18511;DHT22;9384;48.044;11.616;2022-11-20T00:00:16;4.30;99.90
18511;DHT22;9384;48.044;11.616;2022-11-20T00:02:43;4.30;99.90
18511;DHT22;9384;48.044;11.616;2022-11-20T00:05:10;4.20;99.90
18511;DHT22;9384;48.044;11.616;2022-11-20T00:07:37;4.30;99.90
18511;DHT22;9384;48.044;11.616;2022-11-20T00:10:04;4.30;99.90
18511;DHT22;9384;48.044;11.616;2022-11-20T00:12:31;4.20;99.90
18511;DHT22;9384;48.044;11.616;2022-11-20T00:15:00;4.30;99.90
18511;DHT22;9384;48.044;11.616;2022-11-20T00:17:29;4.30;99.90
18511;DHT22;9384;48.044;11.616;2022-11-20T00:19:56;4.30;99.90
18511;DHT22;9384;48.044;11.616;2022-11-20T00:22:23;4.30;99.90
18511;DHT22;9384;48.044;11.616;2022-11-20T00:24:50;4.40;99.90
18511;DHT22;9384;48.044;11.616;2022-11-20T00:27:17;4.30;99.90
18511;DHT22;9384;48.044;11.616;2022-11-20T00:29:43;4.40;99.90
18511;DHT22;9384;48.044;11.616;2022-11-20T00:32:11;4.40;99.90
18511;DHT22;9384;48.044;11.616;2022-11-20T00:34:38;4.40;99.90
18511;DHT22;9384;48.044;11.616;2022-11-20T00:37:05;4.40;99.90
18511;DHT22;9384;48.044;11.616;2022-11-20T00:39:32;4.50;99.90
18511;DHT22;9384;48.044;11.616;2022-11-20T00:41:59;4.40;99.90
18511;DHT22;9384;48.044;11.616;2022-11-20T00:44:26;4.50;99.90
18511;DHT22;9384;48.044;11.616;2022-11-20T00:46:52;4.50;99.90
18511;DHT22;9384;48.044;11.616;2022-11-20T00:49:20;4.50;99.90
18511;DHT22;9384;48.044;11.616;2022-11-20T00:51:47;4.50;99.90
18511;DHT22;9384;48.044;11.616;2022-11-20T00:54:14;4.60;99.90
18511;DHT22;9384;48.044;11.616;2022-11-20T00:56:41;4.60;99.90
18511;DHT22;9384;48.044;11.616;2022-11-20T00:59:09;4.60;99.90
18511;DHT22;9384;48.044;11.616;2022-11-20T01:01:36;4.60;99.90
18511;DHT22;9384;48.044;11.616;2022-11-20T01:04:04;4.60;99.90
18511;DHT22;9384;48.044;11.616;2022-11-20T01:06:33;4.70;99.90
18511;DHT22;9384;48.044;11.616;2022-11-20T01:09:03;4.70;99.90
18511;DHT22;9384;48.044;11.616;2022-11-20T01:11:33;4.70;99.90
18511;DHT22;9384;48.044;11.616;2022-11-20T01:14:01;4.70;99.90
18511;DHT22;9384;48.044;11.616;2022-11-20T01:16:31;4.70;99.90
18511;DHT22;9384;48.044;11.616;2022-11-20T01:18:59;4.70;99.90
18511;DHT22;9384;48.044;11.616;2022-11-20T01:21:27;4.70;99.90
18511;DHT22;9384;48.044;11.616;2022-11-20T01:23:56;4.70;99.90
18511;DHT22;9384;48.044;11.616;2022-11-20T01:26:25;4.70;99.90
18511;DHT22;9384;48.044;11.616;2022-11-20T01:28:53;4.70;99.90
18511;DHT22;9384;48.044;11.616;2022-11-20T01:31:22;4.70;99.90
18511;DHT22;9384;48.044;11.616;2022-11-20T01:33:50;4.70;99.90
18511;DHT22;9384;48.044;11.616;2022-11-20T01:36:19;4.70;99.90
18511;DHT22;9384;48.044;11.616;2022-11-20T01:38:47;4.70;99.90
18511;DHT22;9384;48.044;11.616;2022-11-20T01:41:15;4.70;99.90
18511;DHT22;9384;48.044;11.616;2022-11-20T01:43:56;4.70;99.90
18511;DHT22;9384;48.044;11.616;2022-11-20T01:46:23;4.70;99.90
18511;DHT22;9384;48.044;11.616;2022-11-20T01:48:53;4.70;99.90
18511;DHT22;9384;48.044;11.616;2022-11-20T01:51:24;4.80;99.90
18511;DHT22;9384;48.044;11.616;2022-11-20T01:53:54;4.70;99.90
18511;DHT22;9384;48.044;11.616;2022-11-20T01:56:23;4.80;99.90
18511;DHT22;9384;48.044;11.616;2022-11-20T01:58:52;4.80;99.90
18511;DHT22;9384;48.044;11.616;2022-11-20T02:01:20;4.70;99.90
18511;DHT22;9384;48.044;11.616;2022-11-20T02:03:48;4.70;99.90
18511;DHT22;9384;48.044;11.616;2022-11-20T02:06:21;4.70;99.90
18511;DHT22;9384;48.044;11.616;2022-11-20T02:08:51;4.80;99.90
18511;DHT22;9384;48.044;11.616;2022-11-20T02:11:18;4.80;99.90
18511;DHT22;9384;48.044;11.616;2022-11-20T02:13:47;4.70;99.90
18511;DHT22;9384;48.044;11.616;2022-11-20T02:16:16;4.80;99.90
18511;DHT22;9384;48.044;11.616;2022-11-20T02:18:44;4.80;99.90
18511;DHT22;9384;48.044;11.616;2022-11-20T02:21:27;4.80;99.90
18511;DHT22;9384;48.044;11.616;2022-11-20T02:24:00;4.80;99.90
18511;DHT22;9384;48.044;11.616;2022-11-20T02:26:28;4.70;99.90
18511;DHT22;9384;48.044;11.616;2022-11-20T02:28:56;4.70;99.90
18511;DHT22;9384;48.044;11.616;2022-11-20T02:31:25;4.70;99.90
18511;DHT22;9384;48.044;11.616;2022-11-20T02:33:55;4.70;99.90
18511;DHT22;9384;48.044;11.616;2022-11-20T02:36:22;4.70;99.90
18511;DHT22;9384;48.044;11.616;2022-11-20T02:38:50;4.70;99.90
18511;DHT22;9384;48.044;11.616;2022-11-20T02:41:18;4.70;99.90
18511;DHT22;9384;48.044;11.616;2022-11-20T02:43:45;4.70;99.90
18511;DHT22;9384;48.044;11.616;2022-11-20T02:46:12;4.70;99.90
18511;DHT22;9384;48.044;11.616;2022-11-20T02:48:39;4.70;99.90
18511;DHT22;9384;48.044;11.616;2022-11-20T02:51:06;4.70;99.90
18511;DHT22;9384;48.044;11.616;2022-11-20T02:53:32;4.70;99.90
18511;DHT22;9384;48.044;11.616;2022-11-20T02:55:59;4.70;99.90
18511;DHT22;9384;48.044;11.616;2022-11-20T02:58:27;4.70;99.90
18511;DHT22;9384;48.044;11.616;2022-11-20T03:00:54;4.70;99.90
18511;DHT22;9384;48.044;11.616;2022-11-20T03:03:21;4.70;99.90
18511;DHT22;9384;48.044;11.616;2022-11-20T03:05:48;4.70;99.90
18511;DHT22;9384;48.044;11.616;2022-11-20T03:08:14;4.70;99.90
18511;DHT22;9384;48.044;11.616;2022-11-20T03:10:41;4.70;99.90
18511;DHT22;9384;48.044;11.616;2022-11-20T03:13:08;4.60;99.90
18511;DHT22;9384;48.044;11.616;2022-11-20T03:15:37;4.60;99.90
18511;DHT22;9384;48.044;11.616;2022-11-20T03:18:04;4.60;99.90
18511;DHT22;9384;48.044;11.616;2022-11-20T03:20:32;4.60;99.90
18511;DHT22;9384;48.044;11.616;2022-11-20T03:23:00;4.60;99.90
18511;DHT22;9384;48.044;11.616;2022-11-20T03:25:27;4.60;99.90
18511;DHT22;9384;48.044;11.616;2022-11-20T03:27:54;4.60;99.90
18511;DHT22;9384;48.044;11.616;2022-11-20T03:30:21;4.50;99.90
18511;DHT22;9384;48.044;11.616;2022-11-20T03:32:52;4.50;99.90
18511;DHT22;9384;48.044;11.616;2022-11-20T03:35:20;4.50;99.90
18511;DHT22;9384;48.044;11.616;2022-11-20T03:37:46;4.50;99.90
18511;DHT22;9384;48.044;11.616;2022-11-20T03:40:14;4.40;99.90
18511;DHT22;9384;48.044;11.616;2022-11-20T03:42:40;4.40;99.90
18511;DHT22;9384;48.044;11.616;2022-11-20T03:45:13;4.40;99.90
18511;DHT22;9384;48.044;11.616;2022-11-20T03:47:41;4.40;99.90
18511;DHT22;9384;48.044;11.616;2022-11-20T03:50:11;4.40;99.90
18511;DHT22;9384;48.044;11.616;2022-11-20T03:52:39;4.40;99.90
18511;DHT22;9384;48.044;11.616;2022-11-20T03:55:06;4.40;99.90
18511;DHT22;9384;48.044;11.616;2022-11-20T03:57:33;4.40;99.90
18511;DHT22;9384;48.044;11.616;2022-11-20T04:00:00;4.30;99.90
18511;DHT22;9384;48.044;11.616;2022-11-20T04:02:27;4.30;99.90
18511;DHT22;9384;48.044;11.616;2022-11-20T04:04:54;4.30;99.90
18511;DHT22;9384;48.044;11.616;2022-11-20T04:07:22;4.30;99.90
18511;DHT22;9384;48.044;11.616;2022-11-20T04:09:49;4.30;99.90
18511;DHT22;9384;48.044;11.616;2022-11-20T04:12:16;4.40;99.90
18511;DHT22;9384;48.044;11.616;2022-11-20T04:14:42;4.40;99.90
18511;DHT22;9384;48.044;11.616;2022-11-20T04:17:09;4.40;99.90
18511;DHT22;9384;48.044;11.616;2022-11-20T04:19:36;4.40;99.90
18511;DHT22;9384;48.044;11.616;2022-11-20T04:22:03;4.50;99.90
18511;DHT22;9384;48.044;11.616;2022-11-20T04:24:31;4.50;99.90
18511;DHT22;9384;48.044;11.616;2022-11-20T04:26:58;4.50;99.90
18511;DHT22;9384;48.044;11.616;2022-11-20T04:29:25;4.50;99.90
18511;DHT22;9384;48.044;11.616;2022-11-20T04:31:51;4.50;99.90
18511;DHT22;9384;48.044;11.616;2022-11-20T04:34:18;4.60;99.90
18511;DHT22;9384;48.044;11.616;2022-11-20T04:36:45;4.60;99.90
18511;DHT22;9384;48.044;11.616;2022-11-20T04:39:13;4.50;99.90
18511;DHT22;9384;48.044;11.616;2022-11-20T04:41:42;4.50;99.90
18511;DHT22;9384;48.044;11.616;2022-11-20T04:44:08;4.50;99.90
18511;DHT22;9384;48.044;11.616;2022-11-20T04:46:37;4.50;99.90
18511;DHT22;9384;48.044;11.616;2022-11-20T04:49:05;4.50;99.90
18511;DHT22;9384;48.044;11.616;2022-11-20T04:51:32;4.60;99.90
18511;DHT22;9384;48.044;11.616;2022-11-20T04:53:59;4.60;99.90
18511;DHT22;9384;48.044;11.616;2022-11-20T04:56:26;4.60;99.90
18511;DHT22;9384;48.044;11.616;2022-11-20T04:58:54;4.50;99.90
18511;DHT22;9384;48.044;11.616;2022-11-20T05:01:23;4.60;99.90
18511;DHT22;9384;48.044;11.616;2022-11-20T05:03:50;4.60;99.90
18511;DHT22;9384;48.044;11.616;2022-11-20T05:06:18;4.60;99.90
18511;DHT22;9384;48.044;11.616;2022-11-20T05:08:46;4.60;99.90
18511;DHT22;9384;48.044;11.616;2022-11-20T05:11:14;4.60;99.90
18511;DHT22;9384;48.044;11.616;2022-11-20T05:13:42;4.60;99.90
18511;DHT22;9384;48.044;11.616;2022-11-20T05:16:12;4.60;99.90
18511;DHT22;9384;48.044;11.616;2022-11-20T05:18:39;4.60;99.90
18511;DHT22;9384;48.044;11.616;2022-11-20T05:21:08;4.70;99.90
18511;DHT22;9384;48.044;11.616;2022-11-20T05:23:36;4.70;99.90
18511;DHT22;9384;48.044;11.616;2022-11-20T05:26:03;4.60;99.90
18511;DHT22;9384;48.044;11.616;2022-11-20T05:28:30;4.60;99.90
18511;DHT22;9384;48.044;11.616;2022-11-20T05:31:04;4.70;99.90
18511;DHT22;9384;48.044;11.616;2022-11-20T05:33:32;4.60;99.90
18511;DHT22;9384;48.044;11.616;2022-11-20T05:35:59;4.60;99.90
18511;DHT22;9384;48.044;11.616;2022-11-20T05:38:26;4.60;99.90
18511;DHT22;9384;48.044;11.616;2022-11-20T05:40:53;4.60;99.90
18511;DHT22;9384;48.044;11.616;2022-11-20T05:43:20;4.60;99.90
18511;DHT22;9384;48.044;11.616;2022-11-20T05:45:52;4.50;99.90
18511;DHT22;9384;48.044;11.616;2022-11-20T05:48:19;4.50;99.90
18511;DHT22;9384;48.044;11.616;2022-11-20T05:50:48;4.50;99.90
18511;DHT22;9384;48.044;11.616;2022-11-20T05:53:15;4.50;99.90
18511;DHT22;9384;48.044;11.616;2022-11-20T05:55:41;4.50;99.90
18511;DHT22;9384;48.044;11.616;2022-11-20T05:58:08;4.60;99.90
18511;DHT22;9384;48.044;11.616;2022-11-20T06:00:35;4.60;99.90
18511;DHT22;9384;48.044;11.616;2022-11-20T06:03:02;4.60;99.90
18511;DHT22;9384;48.044;11.616;2022-11-20T06:05:29;4.50;99.90
18511;DHT22;9384;48.044;11.616;2022-11-20T06:07:57;4.50;99.90
18511;DHT22;9384;48.044;11.616;2022-11-20T06:10:26;4.50;99.90
18511;DHT22;9384;48.044;11.616;2022-11-20T06:12:53;4.60;99.90
18511;DHT22;9384;48.044;11.616;2022-11-20T06:15:20;4.60;99.90
18511;DHT22;9384;48.044;11.616;2022-11-20T06:17:47;4.50;99.90
18511;DHT22;9384;48.044;11.616;2022-11-20T06:20:18;4.50;99.90
18511;DHT22;9384;48.044;11.616;2022-11-20T06:22:44;4.50;99.90
18511;DHT22;9384;48.044;11.616;2022-11-20T06:25:13;4.50;99.90
18511;DHT22;9384;48.044;11.616;2022-11-20T06:27:40;4.50;99.90
18511;DHT22;9384;48.044;11.616;2022-11-20T06:30:08;4.40;99.90
18511;DHT22;9384;48.044;11.616;2022-11-20T06:32:35;4.30;99.90
18511;DHT22;9384;48.044;11.616;2022-11-20T06:35:02;4.20;99.90
18511;DHT22;9384;48.044;11.616;2022-11-20T06:37:29;4.20;99.90
18511;DHT22;9384;48.044;11.616;2022-11-20T06:39:56;4.10;99.90
18511;DHT22;9384;48.044;11.616;2022-11-20T06:42:24;4.10;99.90
18511;DHT22;9384;48.044;11.616;2022-11-20T06:44:50;4.00;99.90
18511;DHT22;9384;48.044;11.616;2022-11-20T06:47:17;4.00;99.90
18511;DHT22;9384;48.044;11.616;2022-11-20T06:49:44;4.00;99.90
18511;DHT22;9384;48.044;11.616;2022-11-20T06:52:11;3.90;99.90
18511;DHT22;9384;48.044;11.616;2022-11-20T06:54:38;3.90;99.90
18511;DHT22;9384;48.044;11.616;2022-11-20T06:57:04;4.00;99.90
18511;DHT22;9384;48.044;11.616;2022-11-20T06:59:33;3.90;99.90
18511;DHT22;9384;48.044;11.616;2022-11-20T07:01:59;4.00;99.90
18511;DHT22;9384;48.044;11.616;2022-11-20T07:04:26;4.00;99.90
18511;DHT22;9384;48.044;11.616;2022-11-20T07:06:53;4.00;99.90
18511;DHT22;9384;48.044;11.616;2022-11-20T07:09:20;4.00;99.90
18511;DHT22;9384;48.044;11.616;2022-11-20T07:11:46;4.10;99.90
18511;DHT22;9384;48.044;11.616;2022-11-20T07:14:13;4.10;99.90
18511;DHT22;9384;48.044;11.616;2022-11-20T07:16:41;4.20;99.90
18511;DHT22;9384;48.044;11.616;2022-11-20T07:19:08;4.20;99.90
18511;DHT22;9384;48.044;11.616;2022-11-20T07:21:35;4.20;99.90
18511;DHT22;9384;48.044;11.616;2022-11-20T07:24:02;4.20;99.90
18511;DHT22;9384;48.044;11.616;2022-11-20T07:26:29;4.30;99.90
18511;DHT22;9384;48.044;11.616;2022-11-20T07:28:56;4.30;99.90
18511;DHT22;9384;48.044;11.616;2022-11-20T07:31:22;4.40;99.90
18511;DHT22;9384;48.044;11.616;2022-11-20T07:33:51;4.50;99.90
18511;DHT22;9384;48.044;11.616;2022-11-20T07:36:17;4.60;99.90
18511;DHT22;9384;48.044;11.616;2022-11-20T07:38:44;4.70;99.90
18511;DHT22;9384;48.044;11.616;2022-11-20T07:41:11;4.70;99.90
18511;DHT22;9384;48.044;11.616;2022-11-20T07:43:38;4.80;99.90
18511;DHT22;9384;48.044;11.616;2022-11-20T07:46:05;4.90;99.90
18511;DHT22;9384;48.044;11.616;2022-11-20T07:48:31;4.80;99.90
18511;DHT22;9384;48.044;11.616;2022-11-20T07:50:59;4.90;99.90
18511;DHT22;9384;48.044;11.616;2022-11-20T07:53:26;4.90;99.90
18511;DHT22;9384;48.044;11.616;2022-11-20T07:55:53;4.90;99.90
18511;DHT22;9384;48.044;11.616;2022-11-20T07:58:20;4.90;99.90
18511;DHT22;9384;48.044;11.616;2022-11-20T08:00:47;4.90;99.90
18511;DHT22;9384;48.044;11.616;2022-11-20T08:03:14;5.00;99.90
18511;DHT22;9384;48.044;11.616;2022-11-20T08:05:41;5.00;99.90
18511;DHT22;9384;48.044;11.616;2022-11-20T08:08:09;5.00;99.90
18511;DHT22;9384;48.044;11.616;2022-11-20T08:10:36;5.00;99.90
18511;DHT22;9384;48.044;11.616;2022-11-20T08:13:03;5.00;99.90
18511;DHT22;9384;48.044;11.616;2022-11-20T08:15:49;5.10;99.90
18511;DHT22;9384;48.044;11.616;2022-11-20T08:18:17;5.10;99.90
18511;DHT22;9384;48.044;11.616;2022-11-20T08:20:44;5.10;99.90
18511;DHT22;9384;48.044;11.616;2022-11-20T08:23:12;5.10;99.90
18511;DHT22;9384;48.044;11.616;2022-11-20T08:25:39;5.00;99.90
18511;DHT22;9384;48.044;11.616;2022-11-20T08:28:08;5.10;99.90
18511;DHT22;9384;48.044;11.616;2022-11-20T08:30:36;5.10;99.90
18511;DHT22;9384;48.044;11.616;2022-11-20T08:33:05;5.10;99.90
18511;DHT22;9384;48.044;11.616;2022-11-20T08:35:36;5.10;99.90
18511;DHT22;9384;48.044;11.616;2022-11-20T08:38:03;5.20;99.90
18511;DHT22;9384;48.044;11.616;2022-11-20T08:40:32;5.10;99.90
18511;DHT22;9384;48.044;11.616;2022-11-20T08:42:59;5.20;99.90
18511;DHT22;9384;48.044;11.616;2022-11-20T08:45:26;5.20;99.90
18511;DHT22;9384;48.044;11.616;2022-11-20T08:47:53;5.30;99.90
18511;DHT22;9384;48.044;11.616;2022-11-20T08:50:20;5.30;99.90
18511;DHT22;9384;48.044;11.616;2022-11-20T08:52:46;5.30;99.90
18511;DHT22;9384;48.044;11.616;2022-11-20T08:55:14;5.40;99.90
18511;DHT22;9384;48.044;11.616;2022-11-20T08:57:42;5.40;99.90
18511;DHT22;9384;48.044;11.616;2022-11-20T09:00:10;5.40;99.90
18511;DHT22;9384;48.044;11.616;2022-11-20T09:02:37;5.40;99.90
18511;DHT22;9384;48.044;11.616;2022-11-20T09:05:05;5.50;99.90
18511;DHT22;9384;48.044;11.616;2022-11-20T09:07:32;5.50;99.90
18511;DHT22;9384;48.044;11.616;2022-11-20T09:09:58;5.60;99.90
18511;DHT22;9384;48.044;11.616;2022-11-20T09:12:25;5.60;99.90
18511;DHT22;9384;48.044;11.616;2022-11-20T09:14:53;5.60;99.90
18511;DHT22;9384;48.044;11.616;2022-11-20T09:17:20;5.60;99.90
18511;DHT22;9384;48.044;11.616;2022-11-20T09:19:47;5.60;99.90
18511;DHT22;9384;48.044;11.616;2022-11-20T09:22:14;5.60;99.90
18511;DHT22;9384;48.044;11.616;2022-11-20T09:24:40;5.70;99.90
18511;DHT22;9384;48.044;11.616;2022-11-20T09:27:08;5.70;99.90
18511;DHT22;9384;48.044;11.616;2022-11-20T09:29:35;5.80;99.90
18511;DHT22;9384;48.044;11.616;2022-11-20T09:32:03;5.80;99.90
18511;DHT22;9384;48.044;11.616;2022-11-20T09:34:31;5.80;99.90
18511;DHT22;9384;48.044;11.616;2022-11-20T09:36:58;5.90;99.90
18511;DHT22;9384;48.044;11.616;2022-11-20T09:39:25;5.90;99.90
18511;DHT22;9384;48.044;11.616;2022-11-20T09:45:18;5.90;99.90
18511;DHT22;9384;48.044;11.616;2022-11-20T09:48:14;6.00;99.90
18511;DHT22;9384;48.044;11.616;2022-11-20T09:50:45;6.10;99.90
18511;DHT22;9384;48.044;11.616;2022-11-20T09:53:22;6.10;99.90
18511;DHT22;9384;48.044;11.616;2022-11-20T09:55:52;6.10;99.90
18511;DHT22;9384;48.044;11.616;2022-11-20T09:58:25;6.20;99.90
18511;DHT22;9384;48.044;11.616;2022-11-20T10:00:56;6.30;99.90
18511;DHT22;9384;48.044;11.616;2022-11-20T10:03:36;6.30;99.90
18511;DHT22;9384;48.044;11.616;2022-11-20T10:06:07;6.30;99.90
18511;DHT22;9384;48.044;11.616;2022-11-20T10:08:43;6.40;99.90
18511;DHT22;9384;48.044;11.616;2022-11-20T10:11:15;6.50;99.90
18511;DHT22;9384;48.044;11.616;2022-11-20T10:13:50;6.50;99.90
18511;DHT22;9384;48.044;11.616;2022-11-20T10:16:28;6.60;99.90
18511;DHT22;9384;48.044;11.616;2022-11-20T10:19:10;6.70;99.90
18511;DHT22;9384;48.044;11.616;2022-11-20T10:21:54;6.70;99.90
18511;DHT22;9384;48.044;11.616;2022-11-20T10:24:44;6.80;99.90
18511;DHT22;9384;48.044;11.616;2022-11-20T10:30:11;6.90;99.90
18511;DHT22;9384;48.044;11.616;2022-11-20T10:32:41;6.90;99.90
18511;DHT22;9384;48.044;11.616;2022-11-20T10:37:48;7.00;99.90
18511;DHT22;9384;48.044;11.616;2022-11-20T10:40:22;8.00;99.90
18511;DHT22;9384;48.044;11.616;2022-11-20T10:42:53;8.20;99.90
18511;DHT22;9384;48.044;11.616;2022-11-20T10:45:36;8.00;99.90
18511;DHT22;9384;48.044;11.616;2022-11-20T10:48:12;8.10;99.90
18511;DHT22;9384;48.044;11.616;2022-11-20T11:30:54;8.50;99.90
18511;DHT22;9384;48.044;11.616;2022-11-20T11:33:22;7.40;99.90
18511;DHT22;9384;48.044;11.616;2022-11-20T11:35:53;7.30;99.90
18511;DHT22;9384;48.044;11.616;2022-11-20T11:38:27;7.30;99.90
18511;DHT22;9384;48.044;11.616;2022-11-20T11:40:56;7.30;99.90
18511;DHT22;9384;48.044;11.616;2022-11-20T11:43:25;7.30;99.90
18511;DHT22;9384;48.044;11.616;2022-11-20T11:46:24;7.30;99.90
18511;DHT22;9384;48.044;11.616;2022-11-20T11:48:56;7.30;99.90
18511;DHT22;9384;48.044;11.616;2022-11-20T11:51:27;7.30;99.90
18511;DHT22;9384;48.044;11.616;2022-11-20T11:53:58;7.30;99.90
18511;DHT22;9384;48.044;11.616;2022-11-20T11:56:25;7.90;99.90
18511;DHT22;9384;48.044;11.616;2022-11-20T11:58:57;8.30;99.90
18511;DHT22;9384;48.044;11.616;2022-11-20T12:01:31;8.50;99.90
18511;DHT22;9384;48.044;11.616;2022-11-20T12:04:03;8.20;99.90
18511;DHT22;9384;48.044;11.616;2022-11-20T12:06:33;8.40;99.90
18511;DHT22;9384;48.044;11.616;2022-11-20T12:14:04;9.00;99.90
18511;DHT22;9384;48.044;11.616;2022-11-20T12:16:37;8.40;99.70
18511;DHT22;9384;48.044;11.616;2022-11-20T12:19:08;8.50;99.90
18511;DHT22;9384;48.044;11.616;2022-11-20T12:21:45;8.60;99.90
18511;DHT22;9384;48.044;11.616;2022-11-20T12:24:35;8.40;99.60
18511;DHT22;9384;48.044;11.616;2022-11-20T12:32:34;8.00;99.90
18511;DHT22;9384;48.044;11.616;2022-11-20T12:35:16;7.20;99.90
18511;DHT22;9384;48.044;11.616;2022-11-20T12:37:50;6.90;99.90
18511;DHT22;9384;48.044;11.616;2022-11-20T12:40:28;6.80;99.90
18511;DHT22;9384;48.044;11.616;2022-11-20T12:46:05;6.60;99.90
18511;DHT22;9384;48.044;11.616;2022-11-20T12:51:51;6.50;99.90
18511;DHT22;9384;48.044;11.616;2022-11-20T12:54:48;6.40;99.90
18511;DHT22;9384;48.044;11.616;2022-11-20T12:57:23;6.30;99.90
18511;DHT22;9384;48.044;11.616;2022-11-20T13:00:10;6.20;99.90
18511;DHT22;9384;48.044;11.616;2022-11-20T13:02:58;6.10;99.90
18511;DHT22;9384;48.044;11.616;2022-11-20T13:05:31;6.20;99.90
18511;DHT22;9384;48.044;11.616;2022-11-20T13:08:02;6.10;99.90
18511;DHT22;9384;48.044;11.616;2022-11-20T13:10:36;6.00;99.90
18511;DHT22;9384;48.044;11.616;2022-11-20T13:13:14;6.10;99.90
18511;DHT22;9384;48.044;11.616;2022-11-20T13:15:48;6.00;99.90
18511;DHT22;9384;48.044;11.616;2022-11-20T13:18:18;5.90;99.90
18511;DHT22;9384;48.044;11.616;2022-11-20T13:20:46;5.80;99.90
18511;DHT22;9384;48.044;11.616;2022-11-20T13:23:23;5.80;99.90
18511;DHT22;9384;48.044;11.616;2022-11-20T13:26:03;5.80;99.90
18511;DHT22;9384;48.044;11.616;2022-11-20T13:28:31;5.70;99.90
18511;DHT22;9384;48.044;11.616;2022-11-20T13:30:58;5.70;99.90
18511;DHT22;9384;48.044;11.616;2022-11-20T13:33:29;5.60;99.90
18511;DHT22;9384;48.044;11.616;2022-11-20T13:35:59;5.70;99.90
18511;DHT22;9384;48.044;11.616;2022-11-20T13:38:27;5.70;99.90
18511;DHT22;9384;48.044;11.616;2022-11-20T13:40:57;5.60;99.90
18511;DHT22;9384;48.044;11.616;2022-11-20T13:43:47;5.70;99.90
18511;DHT22;9384;48.044;11.616;2022-11-20T13:46:14;5.70;99.90
18511;DHT22;9384;48.044;11.616;2022-11-20T13:48:43;5.80;99.90
18511;DHT22;9384;48.044;11.616;2022-11-20T13:51:18;5.80;99.90
18511;DHT22;9384;48.044;11.616;2022-11-20T13:54:15;5.90;99.90
18511;DHT22;9384;48.044;11.616;2022-11-20T13:56:54;5.90;99.90
18511;DHT22;9384;48.044;11.616;2022-11-20T13:59:36;5.90;99.90
18511;DHT22;9384;48.044;11.616;2022-11-20T14:02:10;6.00;99.90
18511;DHT22;9384;48.044;11.616;2022-11-20T14:04:43;6.00;99.90
18511;DHT22;9384;48.044;11.616;2022-11-20T14:07:12;6.00;99.90
18511;DHT22;9384;48.044;11.616;2022-11-20T14:09:49;6.00;99.90
18511;DHT22;9384;48.044;11.616;2022-11-20T14:12:20;6.00;99.90
18511;DHT22;9384;48.044;11.616;2022-11-20T14:14:49;6.10;99.90
18511;DHT22;9384;48.044;11.616;2022-11-20T14:17:18;6.10;99.90
18511;DHT22;9384;48.044;11.616;2022-11-20T14:19:47;6.10;99.90
18511;DHT22;9384;48.044;11.616;2022-11-20T14:22:20;6.10;99.90
18511;DHT22;9384;48.044;11.616;2022-11-20T14:24:47;6.10;99.90
18511;DHT22;9384;48.044;11.616;2022-11-20T14:27:15;6.10;99.90
18511;DHT22;9384;48.044;11.616;2022-11-20T14:29:46;6.10;99.90
18511;DHT22;9384;48.044;11.616;2022-11-20T14:32:16;6.00;99.90
18511;DHT22;9384;48.044;11.616;2022-11-20T14:34:46;6.10;99.90
18511;DHT22;9384;48.044;11.616;2022-11-20T14:37:19;6.00;99.90
18511;DHT22;9384;48.044;11.616;2022-11-20T14:39:50;6.00;99.90
18511;DHT22;9384;48.044;11.616;2022-11-20T14:42:20;6.00;99.90
18511;DHT22;9384;48.044;11.616;2022-11-20T14:44:49;6.10;99.90
18511;DHT22;9384;48.044;11.616;2022-11-20T14:47:19;6.00;99.90
18511;DHT22;9384;48.044;11.616;2022-11-20T14:49:48;6.00;99.90
18511;DHT22;9384;48.044;11.616;2022-11-20T14:52:17;6.00;99.90
18511;DHT22;9384;48.044;11.616;2022-11-20T14:54:45;6.00;99.90
18511;DHT22;9384;48.044;11.616;2022-11-20T14:57:24;5.90;99.90
18511;DHT22;9384;48.044;11.616;2022-11-20T15:02:40;5.90;99.90
18511;DHT22;9384;48.044;11.616;2022-11-20T15:05:07;5.90;99.90
18511;DHT22;9384;48.044;11.616;2022-11-20T15:07:37;5.90;99.90
18511;DHT22;9384;48.044;11.616;2022-11-20T15:10:07;5.90;99.90
18511;DHT22;9384;48.044;11.616;2022-11-20T15:12:37;5.90;99.90
18511;DHT22;9384;48.044;11.616;2022-11-20T15:15:06;5.80;99.90
18511;DHT22;9384;48.044;11.616;2022-11-20T15:17:37;5.80;99.90
18511;DHT22;9384;48.044;11.616;2022-11-20T15:20:10;5.80;99.90
18511;DHT22;9384;48.044;11.616;2022-11-20T15:22:38;5.80;99.90
18511;DHT22;9384;48.044;11.616;2022-11-20T15:25:12;5.80;99.90
18511;DHT22;9384;48.044;11.616;2022-11-20T15:27:39;5.80;99.90
18511;DHT22;9384;48.044;11.616;2022-11-20T15:30:13;5.70;99.90
18511;DHT22;9384;48.044;11.616;2022-11-20T15:32:41;5.70;99.90
18511;DHT22;9384;48.044;11.616;2022-11-20T15:35:09;5.70;99.90
18511;DHT22;9384;48.044;11.616;2022-11-20T15:37:36;5.70;99.90
18511;DHT22;9384;48.044;11.616;2022-11-20T15:40:04;5.60;99.90
18511;DHT22;9384;48.044;11.616;2022-11-20T15:42:31;5.60;99.90
18511;DHT22;9384;48.044;11.616;2022-11-20T15:44:58;5.60;99.90
18511;DHT22;9384;48.044;11.616;2022-11-20T15:47:27;5.60;99.90
18511;DHT22;9384;48.044;11.616;2022-11-20T15:49:57;5.60;99.90
18511;DHT22;9384;48.044;11.616;2022-11-20T15:52:24;5.60;99.90
18511;DHT22;9384;48.044;11.616;2022-11-20T15:54:51;5.60;99.90
18511;DHT22;9384;48.044;11.616;2022-11-20T15:57:18;5.50;99.90
18511;DHT22;9384;48.044;11.616;2022-11-20T16:04:39;5.40;99.90
18511;DHT22;9384;48.044;11.616;2022-11-20T16:07:08;5.30;99.90
18511;DHT22;9384;48.044;11.616;2022-11-20T16:09:35;5.30;99.90
18511;DHT22;9384;48.044;11.616;2022-11-20T16:12:01;5.30;99.90
18511;DHT22;9384;48.044;11.616;2022-11-20T16:14:28;5.30;99.90
18511;DHT22;9384;48.044;11.616;2022-11-20T16:19:40;5.20;99.90
18511;DHT22;9384;48.044;11.616;2022-11-20T16:22:11;5.10;99.90
18511;DHT22;9384;48.044;11.616;2022-11-20T16:24:38;5.20;99.90
18511;DHT22;9384;48.044;11.616;2022-11-20T16:27:05;5.10;99.90
18511;DHT22;9384;48.044;11.616;2022-11-20T16:29:31;5.10;99.90
18511;DHT22;9384;48.044;11.616;2022-11-20T16:31:58;5.00;99.90
18511;DHT22;9384;48.044;11.616;2022-11-20T16:34:25;5.00;99.90
18511;DHT22;9384;48.044;11.616;2022-11-20T16:41:48;5.00;99.90
18511;DHT22;9384;48.044;11.616;2022-11-20T16:44:14;4.80;99.90
18511;DHT22;9384;48.044;11.616;2022-11-20T16:46:41;4.80;99.90
18511;DHT22;9384;48.044;11.616;2022-11-20T16:49:12;4.70;99.90
18511;DHT22;9384;48.044;11.616;2022-11-20T16:51:39;4.70;99.90
18511;DHT22;9384;48.044;11.616;2022-11-20T16:54:08;4.60;99.90
18511;DHT22;9384;48.044;11.616;2022-11-20T16:56:36;4.60;99.90
18511;DHT22;9384;48.044;11.616;2022-11-20T16:59:04;4.60;99.90
18511;DHT22;9384;48.044;11.616;2022-11-20T17:01:32;4.50;99.90
18511;DHT22;9384;48.044;11.616;2022-11-20T17:04:01;4.50;99.90
18511;DHT22;9384;48.044;11.616;2022-11-20T17:06:30;4.50;99.90
18511;DHT22;9384;48.044;11.616;2022-11-20T17:08:57;4.50;99.90
18511;DHT22;9384;48.044;11.616;2022-11-20T17:11:25;4.40;99.90
18511;DHT22;9384;48.044;11.616;2022-11-20T17:13:53;4.40;99.90
18511;DHT22;9384;48.044;11.616;2022-11-20T17:16:22;4.40;99.90
18511;DHT22;9384;48.044;11.616;2022-11-20T17:18:49;4.30;99.90